Hua Hin, Thailand
Current Conditions -  °F | °C
As of 4:00 PM on Saturday 25 Oct 2014 (Local Time) from VTBU Reporting Station
Rain Showers Rain Showers  
Wind Chill: 84°   Ceiling: 30000
Heat Index: 92°   Visibility: 6mi
Dew Point: 75°   Wind: 3mph
Humidity: 74%   Direction: 170°S
Pressure: 29.8"   Gusts: NA
Location:  12.57°N, 99.95°E
Report Text: VTBU 250900Z 17003KT 9999 VCSH FEW018CB SCT120 BKN300 29/24 Q1009 A2980 CB NW-NESW
Loading
Personal Weather Stations






























Interactive Weather Map
Tropical Storm Tracking
New forecast layout! Learn more

10-Day Weather Forecast

Advertisements
Track Severe Weather on mobile